createdAt,value
2022-11-08T00:00:42.845Z,99359.56
2022-11-08T00:03:11.096Z,99362.22
2022-11-08T00:05:56.603Z,99360.47
2022-11-08T00:08:42.107Z,99365.75
2022-11-08T00:11:27.674Z,99362.22
2022-11-08T00:13:58.958Z,99360.47
2022-11-08T00:16:29.306Z,99358.63
2022-11-08T00:18:57.528Z,99353.38
2022-11-08T00:21:25.937Z,99359.44
2022-11-08T00:23:54.725Z,99354.16
2022-11-08T00:26:22.753Z,99365.56
2022-11-08T00:28:50.905Z,99366.34
2022-11-08T00:31:19.126Z,99364.59
2022-11-08T00:33:52.412Z,99363.63
2022-11-08T00:36:20.997Z,99361.78
2022-11-08T00:38:49.133Z,99363.47
2022-11-08T00:41:17.323Z,99361.69
2022-11-08T00:43:45.584Z,99356.59
2022-11-08T00:46:13.701Z,99356.50
2022-11-08T00:48:41.851Z,99363.47
2022-11-08T00:51:13.512Z,99358.34
2022-11-08T00:53:42.438Z,99363.38
2022-11-08T00:56:13.847Z,99367.88
2022-11-08T00:58:44.085Z,99363.38
2022-11-08T01:01:15.384Z,99360.03
2022-11-08T01:03:44.339Z,99366.00
2022-11-08T01:06:15.917Z,99361.69
2022-11-08T01:08:44.887Z,99355.44
2022-11-08T01:11:16.187Z,99363.38
2022-11-08T01:13:44.464Z,99365.03
2022-11-08T01:16:15.039Z,99356.06
2022-11-08T01:18:43.933Z,99349.81
2022-11-08T01:21:14.411Z,99362.94
2022-11-08T01:23:42.772Z,99352.41
2022-11-08T01:26:13.486Z,99347.25
2022-11-08T01:28:42.057Z,99341.97
2022-11-08T01:31:12.722Z,99345.53
2022-11-08T01:33:45.657Z,99341.72
2022-11-08T01:36:20.247Z,99340.13
2022-11-08T01:38:48.798Z,99326.97
2022-11-08T01:41:18.952Z,99334.84
2022-11-08T01:43:48.625Z,99325.22
2022-11-08T01:46:46.442Z,99331.41
2022-11-08T01:49:39.537Z,99322.66
2022-11-08T01:52:24.626Z,99327.16
2022-11-08T01:55:02.838Z,99322.56
2022-11-08T01:57:34.924Z,99327.03
2022-11-08T02:00:07.249Z,99324.41
2022-11-08T02:02:38.286Z,99329.59
2022-11-08T02:05:24.999Z,99332.25
2022-11-08T02:08:01.962Z,99325.16
2022-11-08T02:10:35.990Z,99328.78
2022-11-08T02:13:07.743Z,99331.19
2022-11-08T02:15:38.051Z,99322.34
2022-11-08T02:18:06.892Z,99315.25
2022-11-08T02:20:35.611Z,99320.53
2022-11-08T02:23:15.075Z,99315.25
2022-11-08T02:25:44.612Z,99315.13
2022-11-08T02:28:12.770Z,99299.41
2022-11-08T02:30:41.116Z,99307.81
2022-11-08T02:33:16.642Z,99304.34
2022-11-08T02:35:47.664Z,99300.91
2022-11-08T02:38:16.168Z,99298.97
2022-11-08T02:40:50.109Z,99309.63
2022-11-08T02:43:18.183Z,99304.16
2022-11-08T02:45:46.314Z,99305.03
2022-11-08T02:48:14.824Z,99309.34
2022-11-08T02:50:43.146Z,99290.25
2022-11-08T02:53:11.221Z,99304.84
2022-11-08T02:55:39.830Z,99288.94
2022-11-08T02:58:09.442Z,99301.34
2022-11-08T03:00:37.532Z,99296.81
2022-11-08T03:03:06.530Z,99296.81
2022-11-08T03:05:34.665Z,99290.78
2022-11-08T03:08:02.823Z,99298.00
2022-11-08T03:10:31.765Z,99288.31
2022-11-08T03:13:01.574Z,99299.75
2022-11-08T03:15:31.181Z,99290.00
2022-11-08T03:18:02.421Z,99275.22
2022-11-08T03:20:33.145Z,99282.94
2022-11-08T03:23:03.481Z,99293.34
2022-11-08T03:25:31.847Z,99282.94
2022-11-08T03:28:03.198Z,99293.25
2022-11-08T03:30:32.913Z,99295.84
2022-11-08T03:33:01.348Z,99280.03
2022-11-08T03:35:29.846Z,99284.53
2022-11-08T03:37:59.191Z,99284.41
2022-11-08T03:40:28.122Z,99287.91
2022-11-08T03:42:57.503Z,99290.66
2022-11-08T03:45:25.820Z,99293.25
2022-11-08T03:47:55.315Z,99290.50
2022-11-08T03:50:23.518Z,99293.13
2022-11-08T03:52:53.831Z,99293.13
2022-11-08T03:55:24.291Z,99286.81
2022-11-08T03:57:53.415Z,99292.88
2022-11-08T04:00:24.027Z,99286.13
2022-11-08T04:02:52.311Z,99289.56
2022-11-08T04:05:22.341Z,99277.19
2022-11-08T04:07:50.524Z,99284.28
2022-11-08T04:10:19.116Z,99280.84
2022-11-08T04:13:04.976Z,99285.03
2022-11-08T04:15:33.008Z,99275.34
2022-11-08T04:18:18.862Z,99275.22
2022-11-08T04:21:07.438Z,99289.22
2022-11-08T04:23:37.989Z,99276.41
2022-11-08T04:26:08.241Z,99290.13
2022-11-08T04:28:38.425Z,99284.75
2022-11-08T04:31:08.289Z,99287.38
2022-11-08T04:33:36.869Z,99296.22
2022-11-08T04:36:09.292Z,99289.13
2022-11-08T04:38:38.179Z,99287.25
2022-11-08T04:41:08.130Z,99290.81
2022-11-08T04:43:36.923Z,99287.25
2022-11-08T04:46:07.827Z,99282.78
2022-11-08T04:48:36.600Z,99287.25
2022-11-08T04:51:09.162Z,99274.28
2022-11-08T04:53:37.268Z,99280.13
2022-11-08T04:56:07.278Z,99269.66
2022-11-08T04:58:37.314Z,99279.16
2022-11-08T05:01:07.658Z,99274.75
2022-11-08T05:03:36.197Z,99288.97
2022-11-08T05:06:07.364Z,99279.28
2022-11-08T05:08:35.724Z,99280.91
2022-11-08T05:11:05.584Z,99270.56
2022-11-08T05:13:33.848Z,99280.13
2022-11-08T05:16:03.461Z,99270.44
2022-11-08T05:18:33.156Z,99275.72
2022-11-08T05:21:19.882Z,99274.75
2022-11-08T05:23:51.137Z,99271.41
2022-11-08T05:26:20.971Z,99277.38
2022-11-08T05:28:49.553Z,99274.75
2022-11-08T05:31:17.750Z,99281.81
2022-11-08T05:33:46.455Z,99274.75
2022-11-08T05:36:16.087Z,99269.47
2022-11-08T05:38:45.004Z,99275.53
2022-11-08T05:41:17.428Z,99274.63
2022-11-08T05:43:48.500Z,99276.59
2022-11-08T05:46:17.750Z,99275.53
2022-11-08T05:48:47.040Z,99274.63
2022-11-08T05:51:16.518Z,99277.28
2022-11-08T05:53:46.950Z,99275.44
2022-11-08T05:56:16.739Z,99279.84
2022-11-08T05:58:45.618Z,99259.00
2022-11-08T06:01:15.927Z,99279.66
2022-11-08T06:03:44.291Z,99270.94
2022-11-08T06:06:14.208Z,99272.78
2022-11-08T06:08:47.471Z,99263.19
2022-11-08T06:11:22.746Z,99264.06
2022-11-08T06:13:51.500Z,99269.22
2022-11-08T06:16:21.340Z,99262.34
2022-11-08T06:18:50.003Z,99261.44
2022-11-08T06:21:20.228Z,99257.16
2022-11-08T06:23:48.812Z,99255.28
2022-11-08T06:26:17.608Z,99263.38
2022-11-08T06:28:47.136Z,99262.44
2022-11-08T06:31:15.362Z,99262.34
2022-11-08T06:33:48.157Z,99258.78
2022-11-08T06:36:16.759Z,99255.31
2022-11-08T06:38:44.968Z,99266.72
2022-11-08T06:41:20.083Z,99246.84
2022-11-08T06:43:50.134Z,99256.94
2022-11-08T06:46:18.620Z,99265.66
2022-11-08T06:48:46.865Z,99255.19
2022-11-08T06:51:15.516Z,99238.56
2022-11-08T06:53:43.982Z,99253.50
2022-11-08T06:56:12.837Z,99251.66
2022-11-08T06:58:41.171Z,99241.09
2022-11-08T07:01:12.260Z,99242.94
2022-11-08T07:03:40.530Z,99244.53
2022-11-08T07:06:09.644Z,99235.69
2022-11-08T07:08:38.178Z,99240.97
2022-11-08T07:11:06.982Z,99237.28
2022-11-08T07:13:35.625Z,99249.69
2022-11-08T07:16:04.172Z,99238.97
2022-11-08T07:18:34.020Z,99237.38
2022-11-08T07:21:03.143Z,99242.56
2022-11-08T07:23:31.713Z,99239.91
2022-11-08T07:26:02.985Z,99247.97
2022-11-08T07:28:31.269Z,99246.09
2022-11-08T07:31:01.672Z,99247.84
2022-11-08T07:33:30.500Z,99240.81
2022-11-08T07:36:00.532Z,99243.47
2022-11-08T07:38:28.519Z,99240.72
2022-11-08T07:40:58.230Z,99240.72
2022-11-08T07:43:27.882Z,99242.44
2022-11-08T07:45:57.568Z,99245.09
2022-11-08T07:48:27.124Z,99235.53
2022-11-08T07:50:55.700Z,99220.81
2022-11-08T07:53:25.324Z,99237.38
2022-11-08T07:55:54.171Z,99230.53
2022-11-08T07:58:22.499Z,99219.16
2022-11-08T08:00:51.073Z,99235.44
2022-11-08T08:03:20.109Z,99230.13
2022-11-08T08:05:56.776Z,99222.03
2022-11-08T08:08:28.044Z,99219.56
2022-11-08T08:10:59.289Z,99220.44
2022-11-08T08:13:27.846Z,99216.03
2022-11-08T08:16:00.729Z,99212.56
2022-11-08T08:18:29.648Z,99226.44
2022-11-08T08:20:58.193Z,99222.09
2022-11-08T08:23:27.965Z,99234.72
2022-11-08T08:25:56.517Z,99245.13
2022-11-08T08:28:24.836Z,99244.16
2022-11-08T08:30:53.282Z,99241.47
2022-11-08T08:33:28.425Z,99244.16
2022-11-08T08:35:57.925Z,99242.56
2022-11-08T08:38:27.498Z,99233.69
2022-11-08T08:40:55.697Z,99225.91
2022-11-08T08:43:24.555Z,99218.09
2022-11-08T08:45:52.747Z,99230.25
2022-11-08T08:48:21.171Z,99227.56
2022-11-08T08:50:49.648Z,99223.38
2022-11-08T08:53:18.246Z,99229.28
2022-11-08T08:55:48.497Z,99239.13
2022-11-08T08:58:17.539Z,99227.69
2022-11-08T09:03:36.051Z,99228.78
2022-11-08T09:06:04.844Z,99223.38
2022-11-08T09:08:32.995Z,99235.53
2022-11-08T09:11:03.423Z,99232.78
2022-11-08T09:13:32.479Z,99237.16
2022-11-08T09:16:01.861Z,99221.44
2022-11-08T09:18:30.531Z,99226.31
2022-11-08T09:20:58.936Z,99224.63
2022-11-08T09:23:27.602Z,99212.19
2022-11-08T09:25:58.990Z,99221.00
2022-11-08T09:28:31.533Z,99227.94
2022-11-08T09:31:04.933Z,99229.63
2022-11-08T09:33:33.698Z,99222.50
2022-11-08T09:36:02.566Z,99221.47
2022-11-08T09:38:31.254Z,99229.28
2022-11-08T09:41:18.941Z,99227.56
2022-11-08T09:44:13.167Z,99237.22
2022-11-08T09:46:48.579Z,99234.50
2022-11-08T09:49:22.847Z,99238.13
2022-11-08T09:51:51.488Z,99234.56
2022-11-08T09:54:23.824Z,99231.00
2022-11-08T09:56:55.505Z,99214.91
2022-11-08T09:59:36.590Z,99234.19
2022-11-08T10:02:12.347Z,99232.22
2022-11-08T10:04:40.746Z,99226.81
2022-11-08T10:07:26.507Z,99225.06
2022-11-08T10:10:10.166Z,99226.81
2022-11-08T10:12:52.177Z,99225.75
2022-11-08T10:15:31.728Z,99231.81
2022-11-08T10:18:20.574Z,99228.38
2022-11-08T10:21:00.186Z,99244.47
2022-11-08T10:23:37.328Z,99241.69
2022-11-08T10:26:14.113Z,99246.34
2022-11-08T10:28:45.039Z,99246.97
2022-11-08T10:31:15.111Z,99224.00
2022-11-08T10:33:47.061Z,99230.13
2022-11-08T10:36:21.594Z,99200.72
2022-11-08T10:38:55.692Z,99228.38
2022-11-08T10:41:32.306Z,99223.09
2022-11-08T10:44:06.131Z,99220.38
2022-11-08T10:46:41.504Z,99210.41
2022-11-08T10:49:16.322Z,99213.06
2022-11-08T10:51:45.548Z,99211.28
2022-11-08T10:54:42.004Z,99203.28
2022-11-08T10:57:11.434Z,99199.56
2022-11-08T10:59:39.488Z,99190.44
2022-11-08T11:02:27.536Z,99203.03
2022-11-08T11:05:22.093Z,99208.31
2022-11-08T11:08:20.775Z,99213.66
2022-11-08T11:10:50.379Z,99208.44
2022-11-08T11:13:23.048Z,99213.31
2022-11-08T11:15:53.879Z,99209.88
2022-11-08T11:18:33.396Z,99212.88
2022-11-08T11:21:05.827Z,99214.59
2022-11-08T11:23:39.894Z,99213.44
2022-11-08T11:26:10.377Z,99219.72
2022-11-08T11:28:39.076Z,99202.22
2022-11-08T11:31:18.448Z,99213.59
2022-11-08T11:33:48.280Z,99199.56
2022-11-08T11:36:20.815Z,99213.59
2022-11-08T11:38:55.180Z,99210.81
2022-11-08T11:41:29.414Z,99213.44
2022-11-08T11:44:06.853Z,99210.88
2022-11-08T11:46:48.972Z,99213.44
2022-11-08T11:49:22.673Z,99215.31
2022-11-08T11:51:55.273Z,99211.75
2022-11-08T11:54:28.782Z,99203.53
2022-11-08T11:57:01.884Z,99204.47
2022-11-08T11:59:55.165Z,99208.03
2022-11-08T12:02:59.883Z,99201.84
2022-11-08T12:05:43.627Z,99202.50
2022-11-08T12:08:35.831Z,99201.69
2022-11-08T12:11:32.486Z,99200.88
2022-11-08T12:14:24.579Z,99189.81
2022-11-08T12:17:08.042Z,99187.44
2022-11-08T12:19:49.048Z,99180.81
2022-11-08T12:22:46.516Z,99197.19
2022-11-08T12:25:24.696Z,99198.91
2022-11-08T12:27:56.225Z,99197.31
2022-11-08T12:30:31.584Z,99197.31
2022-11-08T12:33:22.992Z,99187.78
2022-11-08T12:36:06.988Z,99192.16
2022-11-08T12:38:43.812Z,99195.59
2022-11-08T12:41:22.808Z,99192.28
2022-11-08T12:44:19.329Z,99187.28
2022-11-08T12:47:04.850Z,99196.41
2022-11-08T12:49:41.109Z,99198.91
2022-11-08T12:52:24.939Z,99201.53
2022-11-08T12:54:59.273Z,99203.41
2022-11-08T12:57:29.006Z,99197.97
2022-11-08T13:00:04.126Z,99193.88
2022-11-08T13:02:37.166Z,99202.69
2022-11-08T13:05:13.253Z,99200.22
2022-11-08T13:07:46.266Z,99207.34
2022-11-08T13:10:29.129Z,99195.19
2022-11-08T13:13:09.648Z,99197.84
2022-11-08T13:16:00.453Z,99191.50
2022-11-08T13:18:37.841Z,99202.03
2022-11-08T13:21:39.324Z,99193.59
2022-11-08T13:24:45.461Z,99190.31
2022-11-08T13:27:31.846Z,99193.88
2022-11-08T13:30:05.782Z,99192.00
2022-11-08T13:32:53.627Z,99187.41
2022-11-08T13:35:30.839Z,99185.75
2022-11-08T13:38:17.030Z,99191.16
2022-11-08T13:41:08.320Z,99194.84
2022-11-08T13:43:40.060Z,99179.97
2022-11-08T13:46:47.038Z,99183.41
2022-11-08T13:49:22.806Z,99188.81
2022-11-08T13:51:51.778Z,99187.13
2022-11-08T13:54:50.020Z,99195.84
2022-11-08T13:57:35.285Z,99191.16
2022-11-08T14:00:11.232Z,99190.16
2022-11-08T14:02:41.069Z,99194.63
2022-11-08T14:05:28.132Z,99177.47
2022-11-08T14:08:14.222Z,99189.81
2022-11-08T14:11:10.583Z,99203.78
2022-11-08T14:13:56.493Z,99220.53
2022-11-08T14:16:31.679Z,99199.41
2022-11-08T14:19:19.988Z,99199.41
2022-11-08T14:21:52.173Z,99188.81
2022-11-08T14:24:23.852Z,99192.53
2022-11-08T14:26:52.480Z,99187.13
2022-11-08T14:29:23.767Z,99174.94
2022-11-08T14:32:05.627Z,99182.19
2022-11-08T14:34:35.963Z,99188.97
2022-11-08T14:37:07.050Z,99175.09
2022-11-08T14:39:37.807Z,99182.19
2022-11-08T14:42:16.059Z,99174.44
2022-11-08T14:44:44.781Z,99172.63
2022-11-08T14:47:25.567Z,99187.75
2022-11-08T14:49:53.681Z,99174.22
2022-11-08T14:52:24.641Z,99173.47
2022-11-08T14:55:02.847Z,99177.06
2022-11-08T14:57:32.737Z,99169.06
2022-11-08T15:00:04.555Z,99175.09
2022-11-08T15:02:34.738Z,99164.75
2022-11-08T15:05:03.070Z,99161.81
2022-11-08T15:07:31.311Z,99157.50
2022-11-08T15:10:08.446Z,99161.34
2022-11-08T15:12:43.016Z,99146.00
2022-11-08T15:15:22.179Z,99151.28
2022-11-08T15:18:10.135Z,99159.13
2022-11-08T15:20:39.071Z,99154.72
2022-11-08T15:23:24.021Z,99151.41
2022-11-08T15:25:58.048Z,99151.41
2022-11-08T15:28:31.975Z,99142.56
2022-11-08T15:31:02.219Z,99133.69
2022-11-08T15:33:36.188Z,99130.25
2022-11-08T15:36:12.087Z,99122.16
2022-11-08T15:38:41.933Z,99124.59
2022-11-08T15:41:35.454Z,99126.84
2022-11-08T15:44:20.666Z,99128.53
2022-11-08T15:46:49.077Z,99120.28
2022-11-08T15:49:21.117Z,99124.59
2022-11-08T15:51:50.585Z,99119.19
2022-11-08T15:54:20.985Z,99129.34
2022-11-08T15:56:50.834Z,99124.34
2022-11-08T15:59:22.296Z,99124.34
2022-11-08T16:01:54.664Z,99114.03
2022-11-08T16:04:24.466Z,99128.03
2022-11-08T16:06:52.590Z,99128.03
2022-11-08T16:09:21.116Z,99126.19
2022-11-08T16:11:49.960Z,99121.72
2022-11-08T16:14:20.997Z,99123.75
2022-11-08T16:20:38.359Z,99128.16
2022-11-08T16:23:12.629Z,99130.75
2022-11-08T16:25:43.294Z,99135.03
2022-11-08T16:28:19.689Z,99122.88
2022-11-08T16:30:48.129Z,99121.16
2022-11-08T16:33:22.683Z,99121.28
2022-11-08T16:35:55.010Z,99117.59
2022-11-08T16:38:27.437Z,99124.78
2022-11-08T16:40:56.163Z,99114.88
2022-11-08T16:43:24.327Z,99110.66
2022-11-08T16:46:07.890Z,99121.03
2022-11-08T16:48:37.177Z,99108.75
2022-11-08T16:51:08.430Z,99108.91
2022-11-08T16:53:38.052Z,99102.13
2022-11-08T16:56:08.735Z,99110.59
2022-11-08T16:58:36.949Z,99107.03
2022-11-08T17:01:10.211Z,99102.13
2022-11-08T17:03:38.936Z,99116.00
2022-11-08T17:06:11.212Z,99113.50
2022-11-08T17:08:39.282Z,99113.44
2022-11-08T17:11:08.022Z,99105.59
2022-11-08T17:13:40.470Z,99113.44
2022-11-08T17:16:12.405Z,99105.44
2022-11-08T17:18:41.342Z,99102.00
2022-11-08T17:21:42.582Z,99109.00
2022-11-08T17:24:01.398Z,99119.50
2022-11-08T17:26:29.501Z,99121.44
2022-11-08T17:28:57.709Z,99117.97
2022-11-08T17:31:26.026Z,99125.84
2022-11-08T17:33:55.393Z,99111.91
2022-11-08T17:36:25.041Z,99116.16
2022-11-08T17:38:53.415Z,99127.31
2022-11-08T17:41:21.500Z,99115.16
2022-11-08T17:43:50.120Z,99136.88
2022-11-08T17:46:18.400Z,99121.03
2022-11-08T17:48:46.566Z,99132.28
2022-11-08T17:51:15.722Z,99128.75
2022-11-08T17:53:45.428Z,99120.75
2022-11-08T17:56:13.605Z,99128.56
2022-11-08T17:58:42.325Z,99138.47
2022-11-08T18:01:11.370Z,99126.19
2022-11-08T18:03:39.718Z,99132.00
2022-11-08T18:06:11.587Z,99132.00
2022-11-08T18:08:40.131Z,99146.81
2022-11-08T18:11:10.083Z,99141.91
2022-11-08T18:13:39.380Z,99144.22
2022-11-08T18:16:09.455Z,99149.38
2022-11-08T18:18:38.002Z,99141.53
2022-11-08T18:21:06.916Z,99161.81
2022-11-08T18:23:35.695Z,99154.06
2022-11-08T18:26:04.045Z,99147.06
2022-11-08T18:28:33.739Z,99154.06
2022-11-08T18:31:06.057Z,99154.06
2022-11-08T18:33:34.308Z,99150.69
2022-11-08T18:36:06.831Z,99145.72
2022-11-08T18:38:39.196Z,99145.59
2022-11-08T18:41:09.437Z,99147.38
2022-11-08T18:43:39.263Z,99152.16
2022-11-08T18:46:09.765Z,99149.66
2022-11-08T18:48:38.227Z,99144.34
2022-11-08T18:51:08.718Z,99142.56
2022-11-08T18:53:37.015Z,99137.50
2022-11-08T18:56:05.712Z,99135.66
2022-11-08T18:58:34.553Z,99126.75
2022-11-08T19:01:05.193Z,99135.06
2022-11-08T19:03:34.869Z,99122.84
2022-11-08T19:06:03.244Z,99127.34
2022-11-08T19:08:31.505Z,99123.75
2022-11-08T19:11:01.680Z,99111.63
2022-11-08T19:13:32.092Z,99113.31
2022-11-08T19:16:01.910Z,99101.75
2022-11-08T19:18:32.839Z,99104.47
2022-11-08T19:21:03.738Z,99098.34
2022-11-08T19:23:32.167Z,99086.38
2022-11-08T19:26:02.501Z,99095.66
2022-11-08T19:28:34.378Z,99093.91
2022-11-08T19:31:02.721Z,99094.81
2022-11-08T19:33:34.853Z,99085.31
2022-11-08T19:36:05.587Z,99092.94
2022-11-08T19:38:34.476Z,99087.66
2022-11-08T19:41:03.733Z,99090.22
2022-11-08T19:43:32.243Z,99078.88
2022-11-08T19:46:03.731Z,99076.34
2022-11-08T19:48:35.752Z,99081.50
2022-11-08T19:51:05.510Z,99075.97
2022-11-08T19:53:34.121Z,99083.13
2022-11-08T19:56:03.346Z,99074.38
2022-11-08T19:58:33.011Z,99075.97
2022-11-08T20:01:07.613Z,99076.84
2022-11-08T20:03:38.019Z,99068.97
2022-11-08T20:06:07.359Z,99068.97
2022-11-08T20:08:35.921Z,99048.13
2022-11-08T20:11:12.623Z,99063.56
2022-11-08T20:13:40.949Z,99060.00
2022-11-08T20:16:14.306Z,99060.00
2022-11-08T20:18:43.993Z,99065.22
2022-11-08T20:21:14.410Z,99061.59
2022-11-08T20:23:43.677Z,99070.06
2022-11-08T20:26:16.529Z,99056.97
2022-11-08T20:28:55.279Z,99052.75
2022-11-08T20:31:24.603Z,99055.91
2022-11-08T20:33:55.347Z,99061.34
2022-11-08T20:36:25.299Z,99063.31
2022-11-08T20:38:59.050Z,99061.34
2022-11-08T20:41:28.106Z,99071.63
2022-11-08T20:43:57.005Z,99054.06
2022-11-08T20:46:26.081Z,99057.50
2022-11-08T20:49:01.160Z,99061.06
2022-11-08T20:51:30.652Z,99057.75
2022-11-08T20:53:59.763Z,99057.63
2022-11-08T20:56:29.165Z,99054.06
2022-11-08T20:58:57.282Z,99051.22
2022-11-08T21:01:28.458Z,99057.34
2022-11-08T21:03:58.349Z,99052.94
2022-11-08T21:06:28.383Z,99051.28
2022-11-08T21:08:59.885Z,99055.53
2022-11-08T21:11:31.119Z,99057.97
2022-11-08T21:13:59.783Z,99065.03
2022-11-08T21:16:33.063Z,99046.75
2022-11-08T21:19:05.179Z,99058.84
2022-11-08T21:21:33.385Z,99053.81
2022-11-08T21:24:01.644Z,99065.22
2022-11-08T21:26:30.045Z,99063.47
2022-11-08T21:28:58.807Z,99051.47
2022-11-08T21:31:27.097Z,99057.22
2022-11-08T21:33:55.437Z,99062.38
2022-11-08T21:36:27.024Z,99056.97
2022-11-08T21:38:55.323Z,99064.13
2022-11-08T21:41:23.822Z,99058.66
2022-11-08T21:43:52.127Z,99058.66
2022-11-08T21:46:21.847Z,99051.56
2022-11-08T21:48:55.423Z,99062.25
2022-11-08T21:51:26.130Z,99065.69
2022-11-08T21:53:55.881Z,99054.06
2022-11-08T21:56:25.981Z,99063.03
2022-11-08T21:58:54.972Z,99063.13
2022-11-08T22:01:29.651Z,99067.53
2022-11-08T22:03:59.274Z,99062.38
2022-11-08T22:06:29.755Z,99081.94
2022-11-08T22:08:57.977Z,99074.69
2022-11-08T22:11:26.437Z,99077.16
2022-11-08T22:13:54.869Z,99079.97
2022-11-08T22:16:23.148Z,99067.53
2022-11-08T22:19:04.643Z,99064.25
2022-11-08T22:21:43.384Z,99067.78
2022-11-08T22:24:13.991Z,99069.78
2022-11-08T22:26:42.968Z,99072.03
2022-11-08T22:29:11.862Z,99067.66
2022-11-08T22:31:40.809Z,99069.41
2022-11-08T22:34:10.297Z,99065.94
2022-11-08T22:36:45.195Z,99071.22
2022-11-08T22:39:15.739Z,99065.09
2022-11-08T22:41:44.651Z,99071.09
2022-11-08T22:44:13.743Z,99071.88
2022-11-08T22:46:42.543Z,99073.88
2022-11-08T22:49:11.701Z,99079.97
2022-11-08T22:51:42.236Z,99070.06
2022-11-08T22:54:10.886Z,99065.09
2022-11-08T22:56:40.504Z,99069.25
2022-11-08T22:59:09.480Z,99071.09
2022-11-08T23:01:38.230Z,99078.38
2022-11-08T23:04:07.091Z,99077.44
2022-11-08T23:06:35.702Z,99076.13
2022-11-08T23:09:06.251Z,99075.19
2022-11-08T23:11:52.099Z,99078.66
2022-11-08T23:14:38.049Z,99077.00
2022-11-08T23:17:08.750Z,99079.28
2022-11-08T23:19:54.635Z,99084.28
2022-11-08T23:22:40.626Z,99077.03
2022-11-08T23:25:10.545Z,99071.25
2022-11-08T23:28:07.566Z,99084.56
2022-11-08T23:30:53.122Z,99080.09
2022-11-08T23:33:21.832Z,99080.16
2022-11-08T23:36:15.296Z,99088.13
2022-11-08T23:38:44.120Z,99074.00
2022-11-08T23:41:31.732Z,99078.44
2022-11-08T23:44:17.211Z,99077.56
2022-11-08T23:46:45.503Z,99077.69
2022-11-08T23:49:13.722Z,99079.41
2022-11-08T23:51:41.879Z,99072.56
2022-11-08T23:54:10.141Z,99077.84
2022-11-08T23:56:39.825Z,99065.66
2022-11-08T23:59:11.208Z,99069.09
